sensor_id;sensor_type;location;lat;lon;timestamp;pressure;altitude;pressure_sealevel;temperature;humidity
39823;BME280;25499;53.958;10.970;2023-11-18T08:46:00;102392.06;;;3.64;100.00
39823;BME280;25499;53.958;10.970;2023-11-18T08:48:27;102388.88;;;3.52;100.00
39823;BME280;25499;53.958;10.970;2023-11-18T08:50:54;102399.16;;;3.68;100.00
39823;BME280;25499;53.958;10.970;2023-11-18T08:53:21;102400.75;;;3.66;100.00
39823;BME280;25499;53.958;10.970;2023-11-18T08:55:51;102397.06;;;3.61;100.00
39823;BME280;25499;53.958;10.970;2023-11-18T08:58:19;102398.34;;;3.53;100.00
39823;BME280;25499;53.958;10.970;2023-11-18T09:00:49;102389.66;;;3.51;100.00
39823;BME280;25499;53.958;10.970;2023-11-18T09:03:20;102400.34;;;3.42;100.00
39823;BME280;25499;53.958;10.970;2023-11-18T09:06:00;102390.28;;;3.30;100.00
39823;BME280;25499;53.958;10.970;2023-11-18T09:08:30;102386.63;;;3.42;100.00
39823;BME280;25499;53.958;10.970;2023-11-18T09:11:00;102385.25;;;3.48;100.00
39823;BME280;25499;53.958;10.970;2023-11-18T09:13:27;102390.47;;;3.50;100.00
39823;BME280;25499;53.958;10.970;2023-11-18T09:15:55;102388.44;;;3.61;100.00
39823;BME280;25499;53.958;10.970;2023-11-18T09:18:24;102377.28;;;3.44;100.00
39823;BME280;25499;53.958;10.970;2023-11-18T09:20:51;102382.75;;;3.50;100.00
39823;BME280;25499;53.958;10.970;2023-11-18T09:23:20;102373.75;;;3.58;100.00
39823;BME280;25499;53.958;10.970;2023-11-18T09:25:49;102383.84;;;3.71;100.00
39823;BME280;25499;53.958;10.970;2023-11-18T09:28:16;102374.03;;;3.81;100.00
39823;BME280;25499;53.958;10.970;2023-11-18T09:30:45;102376.53;;;3.79;100.00
39823;BME280;25499;53.958;10.970;2023-11-18T09:33:20;102377.06;;;3.90;100.00
39823;BME280;25499;53.958;10.970;2023-11-18T09:35:56;102383.03;;;3.72;100.00
39823;BME280;25499;53.958;10.970;2023-11-18T09:38:28;102386.34;;;3.70;100.00
39823;BME280;25499;53.958;10.970;2023-11-18T09:40:56;102384.25;;;3.63;100.00
39823;BME280;25499;53.958;10.970;2023-11-18T09:43:28;102391.03;;;3.61;100.00
39823;BME280;25499;53.958;10.970;2023-11-18T09:46:04;102384.88;;;3.75;100.00
39823;BME280;25499;53.958;10.970;2023-11-18T09:48:43;102377.97;;;3.74;100.00
39823;BME280;25499;53.958;10.970;2023-11-18T09:51:20;102371.78;;;3.70;100.00
39823;BME280;25499;53.958;10.970;2023-11-18T09:53:50;102372.75;;;3.72;100.00
39823;BME280;25499;53.958;10.970;2023-11-18T09:56:22;102373.00;;;3.77;100.00
39823;BME280;25499;53.958;10.970;2023-11-18T09:59:05;102370.63;;;3.82;100.00
39823;BME280;25499;53.958;10.970;2023-11-18T10:01:38;102372.06;;;3.93;100.00
39823;BME280;25499;53.958;10.970;2023-11-18T10:04:06;102361.44;;;3.87;100.00
39823;BME280;25499;53.958;10.970;2023-11-18T10:06:36;102365.38;;;3.97;100.00
39823;BME280;25499;53.958;10.970;2023-11-18T10:09:06;102347.66;;;4.03;100.00
39823;BME280;25499;53.958;10.970;2023-11-18T10:11:42;102341.63;;;4.02;100.00
39823;BME280;25499;53.958;10.970;2023-11-18T10:14:13;102329.75;;;4.24;100.00
39823;BME280;25499;53.958;10.970;2023-11-18T10:16:41;102321.81;;;4.19;100.00
39823;BME280;25499;53.958;10.970;2023-11-18T10:19:11;102317.09;;;4.28;100.00
39823;BME280;25499;53.958;10.970;2023-11-18T10:21:41;102314.44;;;4.45;100.00
39823;BME280;25499;53.958;10.970;2023-11-18T10:24:08;102309.09;;;4.60;100.00
39823;BME280;25499;53.958;10.970;2023-11-18T10:26:42;102308.63;;;4.86;100.00
39823;BME280;25499;53.958;10.970;2023-11-18T10:29:11;102309.53;;;4.69;100.00
39823;BME280;25499;53.958;10.970;2023-11-18T10:31:39;102305.31;;;4.52;100.00
39823;BME280;25499;53.958;10.970;2023-11-18T10:34:11;102295.38;;;4.41;100.00
39823;BME280;25499;53.958;10.970;2023-11-18T10:36:58;102304.13;;;4.45;100.00
39823;BME280;25499;53.958;10.970;2023-11-18T10:39:29;102298.75;;;4.58;100.00
39823;BME280;25499;53.958;10.970;2023-11-18T10:41:59;102306.28;;;4.73;100.00
39823;BME280;25499;53.958;10.970;2023-11-18T10:44:25;102300.72;;;4.83;100.00
39823;BME280;25499;53.958;10.970;2023-11-18T10:46:55;102300.75;;;5.03;100.00
39823;BME280;25499;53.958;10.970;2023-11-18T10:49:24;102289.56;;;5.43;100.00
39823;BME280;25499;53.958;10.970;2023-11-18T10:51:52;102282.25;;;6.15;100.00
39823;BME280;25499;53.958;10.970;2023-11-18T10:54:20;102271.72;;;6.79;100.00
39823;BME280;25499;53.958;10.970;2023-11-18T10:56:48;102259.41;;;7.20;100.00
39823;BME280;25499;53.958;10.970;2023-11-18T10:59:15;102253.19;;;7.92;100.00
39823;BME280;25499;53.958;10.970;2023-11-18T11:01:44;102243.19;;;9.56;100.00
39823;BME280;25499;53.958;10.970;2023-11-18T11:04:15;102234.19;;;10.16;100.00
39823;BME280;25499;53.958;10.970;2023-11-18T11:06:47;102219.41;;;10.97;100.00
39823;BME280;25499;53.958;10.970;2023-11-18T11:09:20;102199.44;;;13.54;100.00
39823;BME280;25499;53.958;10.970;2023-11-18T11:11:53;102178.31;;;15.02;100.00
39823;BME280;25499;53.958;10.970;2023-11-18T11:14:21;102134.84;;;17.02;100.00
39823;BME280;25499;53.958;10.970;2023-11-18T11:16:52;102038.53;;;17.72;100.00
39823;BME280;25499;53.958;10.970;2023-11-18T11:19:25;101873.63;;;17.59;95.66
39823;BME280;25499;53.958;10.970;2023-11-18T11:22:01;101682.91;;;15.78;85.39
39823;BME280;25499;53.958;10.970;2023-11-18T11:24:48;101668.25;;;13.82;83.82
39823;BME280;25499;53.958;10.970;2023-11-18T11:27:23;101623.56;;;12.25;83.49
39823;BME280;25499;53.958;10.970;2023-11-18T11:30:08;101720.56;;;13.99;83.59
39823;BME280;25499;53.958;10.970;2023-11-18T11:32:41;101738.47;;;15.21;81.98
39823;BME280;25499;53.958;10.970;2023-11-18T11:35:16;101662.78;;;16.53;77.40
39823;BME280;25499;53.958;10.970;2023-11-18T11:37:47;101583.69;;;16.68;73.54
39823;BME280;25499;53.958;10.970;2023-11-18T11:40:17;101442.84;;;14.27;72.80
39823;BME280;25499;53.958;10.970;2023-11-18T11:42:49;101486.91;;;13.37;74.21
39823;BME280;25499;53.958;10.970;2023-11-18T11:45:22;101470.34;;;11.96;75.44
39823;BME280;25499;53.958;10.970;2023-11-18T11:47:54;101521.97;;;10.99;77.66
39823;BME280;25499;53.958;10.970;2023-11-18T11:50:45;101663.75;;;12.58;78.28
39823;BME280;25499;53.958;10.970;2023-11-18T11:53:20;101572.91;;;11.87;77.77
39823;BME280;25499;53.958;10.970;2023-11-18T11:55:52;101503.00;;;10.20;78.93
39823;BME280;25499;53.958;10.970;2023-11-18T11:58:28;101528.25;;;8.99;81.10
39823;BME280;25499;53.958;10.970;2023-11-18T12:00:58;101632.97;;;8.96;83.28
39823;BME280;25499;53.958;10.970;2023-11-18T12:03:27;101687.25;;;8.81;85.29
39823;BME280;25499;53.958;10.970;2023-11-18T12:06:01;101760.25;;;9.42;86.43
39823;BME280;25499;53.958;10.970;2023-11-18T12:08:35;101717.25;;;9.12;85.79
39823;BME280;25499;53.958;10.970;2023-11-18T12:11:04;101719.81;;;8.67;86.61
39823;BME280;25499;53.958;10.970;2023-11-18T12:13:36;101743.69;;;8.49;88.07
39823;BME280;25499;53.958;10.970;2023-11-18T12:16:06;101766.19;;;8.50;89.49
39823;BME280;25499;53.958;10.970;2023-11-18T12:18:35;101819.41;;;9.10;90.39
39823;BME280;25499;53.958;10.970;2023-11-18T12:21:03;101885.16;;;11.84;89.75
39823;BME280;25499;53.958;10.970;2023-11-18T12:23:30;101689.06;;;11.33;84.82
39823;BME280;25499;53.958;10.970;2023-11-18T12:25:59;101694.84;;;12.10;83.53
39823;BME280;25499;53.958;10.970;2023-11-18T12:28:31;101568.31;;;11.43;81.42
39823;BME280;25499;53.958;10.970;2023-11-18T12:31:00;101501.59;;;10.52;81.13
39823;BME280;25499;53.958;10.970;2023-11-18T12:34:02;101482.50;;;9.70;81.57
39823;BME280;25499;53.958;10.970;2023-11-18T12:40:07;101453.03;;;7.57;83.60
39823;BME280;25499;53.958;10.970;2023-11-18T12:42:58;101510.59;;;7.42;84.60
39823;BME280;25499;53.958;10.970;2023-11-18T12:46:01;101559.66;;;7.36;86.48
39823;BME280;25499;53.958;10.970;2023-11-18T12:48:43;101607.25;;;7.41;87.67
39823;BME280;25499;53.958;10.970;2023-11-18T12:51:12;101639.56;;;7.94;87.44
39823;BME280;25499;53.958;10.970;2023-11-18T12:53:47;101637.31;;;8.11;87.61
39823;BME280;25499;53.958;10.970;2023-11-18T12:56:15;101592.97;;;7.57;87.17
39823;BME280;25499;53.958;10.970;2023-11-18T12:58:42;101572.03;;;7.12;87.22
39823;BME280;25499;53.958;10.970;2023-11-18T13:01:11;101580.38;;;6.66;87.52
39823;BME280;25499;53.958;10.970;2023-11-18T13:03:40;101608.00;;;6.35;88.58
39823;BME280;25499;53.958;10.970;2023-11-18T13:06:08;101625.63;;;6.19;89.16
39823;BME280;25499;53.958;10.970;2023-11-18T13:08:37;101640.63;;;6.02;90.28
39823;BME280;25499;53.958;10.970;2023-11-18T13:11:04;101691.00;;;6.14;91.66
39823;BME280;25499;53.958;10.970;2023-11-18T13:13:37;101708.50;;;6.23;92.44
39823;BME280;25499;53.958;10.970;2023-11-18T13:16:06;101745.34;;;6.45;92.92
39823;BME280;25499;53.958;10.970;2023-11-18T13:18:43;101739.44;;;6.49;92.90
39823;BME280;25499;53.958;10.970;2023-11-18T13:21:16;101747.47;;;6.58;93.59
39823;BME280;25499;53.958;10.970;2023-11-18T13:23:46;101746.00;;;6.38;94.33
39823;BME280;25499;53.958;10.970;2023-11-18T13:26:14;101748.72;;;6.42;94.81
39823;BME280;25499;53.958;10.970;2023-11-18T13:28:41;101762.38;;;6.38;95.23
39823;BME280;25499;53.958;10.970;2023-11-18T13:31:09;101751.19;;;6.10;95.34
39823;BME280;25499;53.958;10.970;2023-11-18T13:33:38;101768.41;;;6.10;96.12
39823;BME280;25499;53.958;10.970;2023-11-18T13:36:07;101767.63;;;5.87;96.53
39823;BME280;25499;53.958;10.970;2023-11-18T13:38:36;101785.56;;;5.82;97.38
39823;BME280;25499;53.958;10.970;2023-11-18T13:41:03;101790.16;;;5.64;97.65
39823;BME280;25499;53.958;10.970;2023-11-18T13:43:41;101789.06;;;5.57;98.41
39823;BME280;25499;53.958;10.970;2023-11-18T13:46:10;101785.38;;;5.50;98.65
39823;BME280;25499;53.958;10.970;2023-11-18T13:48:39;101785.28;;;5.47;98.84
39823;BME280;25499;53.958;10.970;2023-11-18T13:51:10;101798.19;;;5.47;99.72
39823;BME280;25499;53.958;10.970;2023-11-18T13:53:39;101795.25;;;5.36;100.00
39823;BME280;25499;53.958;10.970;2023-11-18T13:56:09;101795.31;;;5.39;100.00
39823;BME280;25499;53.958;10.970;2023-11-18T13:58:36;101800.66;;;5.44;100.00
39823;BME280;25499;53.958;10.970;2023-11-18T14:01:05;101794.22;;;5.33;100.00
39823;BME280;25499;53.958;10.970;2023-11-18T14:03:33;101799.38;;;5.33;100.00
39823;BME280;25499;53.958;10.970;2023-11-18T14:06:02;101790.66;;;5.29;100.00
39823;BME280;25499;53.958;10.970;2023-11-18T14:08:31;101789.56;;;5.22;100.00
39823;BME280;25499;53.958;10.970;2023-11-18T14:10:59;101787.59;;;5.15;100.00
39823;BME280;25499;53.958;10.970;2023-11-18T14:13:27;101794.47;;;5.15;100.00
39823;BME280;25499;53.958;10.970;2023-11-18T14:15:56;101780.34;;;5.05;100.00
39823;BME280;25499;53.958;10.970;2023-11-18T14:18:25;101789.97;;;5.09;100.00
39823;BME280;25499;53.958;10.970;2023-11-18T14:20:52;101786.44;;;5.07;100.00
39823;BME280;25499;53.958;10.970;2023-11-18T14:23:20;101784.53;;;5.01;100.00
39823;BME280;25499;53.958;10.970;2023-11-18T14:25:48;101788.25;;;4.85;100.00
39823;BME280;25499;53.958;10.970;2023-11-18T14:28:15;101791.81;;;4.89;100.00
39823;BME280;25499;53.958;10.970;2023-11-18T14:30:43;101800.19;;;4.83;100.00
39823;BME280;25499;53.958;10.970;2023-11-18T14:33:09;101809.09;;;4.92;100.00
39823;BME280;25499;53.958;10.970;2023-11-18T14:35:36;101796.63;;;4.80;100.00
39823;BME280;25499;53.958;10.970;2023-11-18T14:38:05;101803.69;;;4.84;100.00
39823;BME280;25499;53.958;10.970;2023-11-18T14:40:34;101808.78;;;4.82;100.00
39823;BME280;25499;53.958;10.970;2023-11-18T14:43:02;101807.59;;;4.74;100.00
39823;BME280;25499;53.958;10.970;2023-11-18T14:45:30;101803.84;;;4.66;100.00
39823;BME280;25499;53.958;10.970;2023-11-18T14:47:58;101815.94;;;4.67;100.00
39823;BME280;25499;53.958;10.970;2023-11-18T14:50:25;101819.19;;;4.63;100.00
39823;BME280;25499;53.958;10.970;2023-11-18T14:52:53;101813.75;;;4.55;100.00
39823;BME280;25499;53.958;10.970;2023-11-18T14:55:25;101812.72;;;4.50;100.00
39823;BME280;25499;53.958;10.970;2023-11-18T14:57:52;101818.06;;;4.56;100.00
39823;BME280;25499;53.958;10.970;2023-11-18T15:00:20;101812.25;;;4.60;100.00
39823;BME280;25499;53.958;10.970;2023-11-18T15:02:51;101810.28;;;4.55;100.00
39823;BME280;25499;53.958;10.970;2023-11-18T15:05:18;101804.13;;;4.51;100.00
39823;BME280;25499;53.958;10.970;2023-11-18T15:07:47;101803.56;;;4.58;100.00
39823;BME280;25499;53.958;10.970;2023-11-18T15:10:18;101803.38;;;4.54;100.00
39823;BME280;25499;53.958;10.970;2023-11-18T15:12:47;101802.59;;;4.56;100.00
39823;BME280;25499;53.958;10.970;2023-11-18T15:15:15;101796.19;;;4.45;100.00
39823;BME280;25499;53.958;10.970;2023-11-18T15:17:46;101801.94;;;4.39;100.00
39823;BME280;25499;53.958;10.970;2023-11-18T15:20:14;101805.50;;;4.41;100.00
39823;BME280;25499;53.958;10.970;2023-11-18T15:22:44;101813.31;;;4.44;100.00
39823;BME280;25499;53.958;10.970;2023-11-18T15:25:11;101798.50;;;4.39;100.00
39823;BME280;25499;53.958;10.970;2023-11-18T15:27:40;101788.91;;;4.35;100.00
39823;BME280;25499;53.958;10.970;2023-11-18T15:30:09;101787.44;;;4.41;100.00
39823;BME280;25499;53.958;10.970;2023-11-18T15:32:39;101772.41;;;4.31;100.00
39823;BME280;25499;53.958;10.970;2023-11-18T15:35:08;101770.75;;;4.32;100.00
39823;BME280;25499;53.958;10.970;2023-11-18T15:37:36;101767.31;;;4.33;100.00
39823;BME280;25499;53.958;10.970;2023-11-18T15:40:05;101775.13;;;4.34;100.00
39823;BME280;25499;53.958;10.970;2023-11-18T15:42:45;101775.06;;;4.33;100.00
39823;BME280;25499;53.958;10.970;2023-11-18T15:45:15;101781.91;;;4.32;100.00
39823;BME280;25499;53.958;10.970;2023-11-18T15:47:43;101786.66;;;4.21;100.00
39823;BME280;25499;53.958;10.970;2023-11-18T15:50:12;101783.09;;;4.18;100.00
39823;BME280;25499;53.958;10.970;2023-11-18T15:52:41;101776.56;;;4.27;100.00
39823;BME280;25499;53.958;10.970;2023-11-18T15:55:08;101780.50;;;4.18;100.00
39823;BME280;25499;53.958;10.970;2023-11-18T15:57:39;101775.44;;;4.21;100.00
39823;BME280;25499;53.958;10.970;2023-11-18T16:00:08;101780.56;;;4.19;100.00
39823;BME280;25499;53.958;10.970;2023-11-18T16:02:40;101780.78;;;4.25;100.00
39823;BME280;25499;53.958;10.970;2023-11-18T16:05:07;101775.81;;;4.30;100.00
39823;BME280;25499;53.958;10.970;2023-11-18T16:07:36;101768.56;;;4.20;100.00
39823;BME280;25499;53.958;10.970;2023-11-18T16:10:04;101759.91;;;4.18;100.00
39823;BME280;25499;53.958;10.970;2023-11-18T16:12:30;101757.88;;;4.10;100.00
39823;BME280;25499;53.958;10.970;2023-11-18T16:14:58;101766.66;;;4.16;100.00
39823;BME280;25499;53.958;10.970;2023-11-18T16:17:25;101756.31;;;4.14;100.00
39823;BME280;25499;53.958;10.970;2023-11-18T16:19:52;101750.84;;;4.06;100.00
39823;BME280;25499;53.958;10.970;2023-11-18T16:22:20;101740.78;;;4.13;100.00
39823;BME280;25499;53.958;10.970;2023-11-18T16:24:49;101739.75;;;4.07;100.00
39823;BME280;25499;53.958;10.970;2023-11-18T16:27:16;101738.31;;;4.16;100.00
39823;BME280;25499;53.958;10.970;2023-11-18T16:29:43;101728.31;;;4.01;100.00
39823;BME280;25499;53.958;10.970;2023-11-18T16:32:10;101740.84;;;4.14;100.00
39823;BME280;25499;53.958;10.970;2023-11-18T16:34:38;101736.31;;;4.08;100.00
39823;BME280;25499;53.958;10.970;2023-11-18T16:37:05;101732.16;;;4.12;100.00
39823;BME280;25499;53.958;10.970;2023-11-18T16:39:33;101738.44;;;4.19;100.00
39823;BME280;25499;53.958;10.970;2023-11-18T16:42:01;101731.53;;;4.18;100.00
39823;BME280;25499;53.958;10.970;2023-11-18T16:44:28;101718.34;;;4.10;100.00
39823;BME280;25499;53.958;10.970;2023-11-18T16:46:56;101719.88;;;4.05;100.00
39823;BME280;25499;53.958;10.970;2023-11-18T16:49:23;101715.66;;;4.07;100.00
39823;BME280;25499;53.958;10.970;2023-11-18T16:51:50;101713.13;;;4.08;100.00
39823;BME280;25499;53.958;10.970;2023-11-18T16:54:21;101710.09;;;3.96;100.00
39823;BME280;25499;53.958;10.970;2023-11-18T16:56:48;101724.38;;;4.10;100.00
39823;BME280;25499;53.958;10.970;2023-11-18T16:59:17;101726.53;;;4.00;100.00
39823;BME280;25499;53.958;10.970;2023-11-18T17:01:44;101723.31;;;4.05;100.00
39823;BME280;25499;53.958;10.970;2023-11-18T17:04:11;101717.47;;;4.09;100.00
39823;BME280;25499;53.958;10.970;2023-11-18T17:06:38;101721.56;;;4.04;100.00
39823;BME280;25499;53.958;10.970;2023-11-18T17:09:05;101712.31;;;4.09;100.00
39823;BME280;25499;53.958;10.970;2023-11-18T17:11:32;101701.84;;;4.05;100.00
39823;BME280;25499;53.958;10.970;2023-11-18T17:13:59;101707.22;;;4.11;100.00
39823;BME280;25499;53.958;10.970;2023-11-18T17:16:31;101690.59;;;4.03;100.00
39823;BME280;25499;53.958;10.970;2023-11-18T17:18:58;101689.81;;;4.05;100.00
39823;BME280;25499;53.958;10.970;2023-11-18T17:21:25;101697.19;;;3.96;100.00
39823;BME280;25499;53.958;10.970;2023-11-18T17:23:53;101712.06;;;4.03;100.00
39823;BME280;25499;53.958;10.970;2023-11-18T17:26:20;101695.97;;;4.09;100.00
39823;BME280;25499;53.958;10.970;2023-11-18T17:28:50;101702.09;;;4.11;100.00
39823;BME280;25499;53.958;10.970;2023-11-18T17:31:16;101700.31;;;4.10;100.00
39823;BME280;25499;53.958;10.970;2023-11-18T17:33:45;101698.84;;;3.94;100.00
39823;BME280;25499;53.958;10.970;2023-11-18T17:36:13;101705.94;;;4.00;100.00
39823;BME280;25499;53.958;10.970;2023-11-18T17:38:41;101707.38;;;3.93;100.00
39823;BME280;25499;53.958;10.970;2023-11-18T17:41:08;101698.47;;;3.85;100.00
39823;BME280;25499;53.958;10.970;2023-11-18T17:43:35;101703.75;;;3.88;100.00
39823;BME280;25499;53.958;10.970;2023-11-18T17:46:04;101698.66;;;3.89;100.00
39823;BME280;25499;53.958;10.970;2023-11-18T17:48:33;101699.53;;;3.90;100.00
39823;BME280;25499;53.958;10.970;2023-11-18T17:51:02;101694.03;;;3.81;100.00
39823;BME280;25499;53.958;10.970;2023-11-18T17:53:29;101690.69;;;3.83;100.00
39823;BME280;25499;53.958;10.970;2023-11-18T17:55:57;101682.72;;;3.77;100.00
39823;BME280;25499;53.958;10.970;2023-11-18T17:58:24;101666.81;;;3.87;100.00
39823;BME280;25499;53.958;10.970;2023-11-18T18:00:51;101651.97;;;3.82;100.00
39823;BME280;25499;53.958;10.970;2023-11-18T18:03:19;101644.97;;;3.78;100.00
39823;BME280;25499;53.958;10.970;2023-11-18T18:05:46;101648.59;;;3.83;100.00
39823;BME280;25499;53.958;10.970;2023-11-18T18:08:14;101652.03;;;3.83;100.00
39823;BME280;25499;53.958;10.970;2023-11-18T18:10:41;101632.28;;;3.82;100.00
39823;BME280;25499;53.958;10.970;2023-11-18T18:13:10;101627.41;;;3.90;100.00
39823;BME280;25499;53.958;10.970;2023-11-18T18:15:37;101625.28;;;3.80;100.00
39823;BME280;25499;53.958;10.970;2023-11-18T18:18:04;101616.44;;;3.73;100.00
39823;BME280;25499;53.958;10.970;2023-11-18T18:20:31;101620.56;;;3.90;100.00
39823;BME280;25499;53.958;10.970;2023-11-18T18:22:57;101619.16;;;3.76;100.00
39823;BME280;25499;53.958;10.970;2023-11-18T18:25:26;101608.09;;;3.79;100.00
39823;BME280;25499;53.958;10.970;2023-11-18T18:27:54;101622.72;;;3.80;100.00
39823;BME280;25499;53.958;10.970;2023-11-18T18:30:20;101627.19;;;3.84;100.00
39823;BME280;25499;53.958;10.970;2023-11-18T18:32:47;101629.56;;;3.79;100.00
39823;BME280;25499;53.958;10.970;2023-11-18T18:35:14;101628.78;;;3.82;100.00
39823;BME280;25499;53.958;10.970;2023-11-18T18:37:41;101635.47;;;3.77;100.00
39823;BME280;25499;53.958;10.970;2023-11-18T18:40:10;101633.91;;;3.80;100.00
39823;BME280;25499;53.958;10.970;2023-11-18T18:42:39;101616.03;;;3.85;100.00
39823;BME280;25499;53.958;10.970;2023-11-18T18:45:07;101604.56;;;3.77;100.00
39823;BME280;25499;53.958;10.970;2023-11-18T18:47:35;101596.91;;;3.78;100.00
39823;BME280;25499;53.958;10.970;2023-11-18T18:50:02;101592.59;;;3.77;100.00
39823;BME280;25499;53.958;10.970;2023-11-18T18:52:30;101610.63;;;3.77;100.00
39823;BME280;25499;53.958;10.970;2023-11-18T18:54:57;101587.38;;;3.76;100.00
39823;BME280;25499;53.958;10.970;2023-11-18T18:57:25;101589.81;;;3.72;100.00
39823;BME280;25499;53.958;10.970;2023-11-18T18:59:54;101588.06;;;3.71;100.00
39823;BME280;25499;53.958;10.970;2023-11-18T19:02:21;101587.38;;;3.76;100.00
39823;BME280;25499;53.958;10.970;2023-11-18T19:04:47;101572.66;;;3.73;100.00
39823;BME280;25499;53.958;10.970;2023-11-18T19:07:14;101568.50;;;3.77;100.00
39823;BME280;25499;53.958;10.970;2023-11-18T19:09:44;101576.09;;;3.72;100.00
39823;BME280;25499;53.958;10.970;2023-11-18T19:12:11;101580.28;;;3.70;100.00
39823;BME280;25499;53.958;10.970;2023-11-18T19:14:37;101563.84;;;3.66;100.00
39823;BME280;25499;53.958;10.970;2023-11-18T19:17:06;101560.44;;;3.67;100.00
39823;BME280;25499;53.958;10.970;2023-11-18T19:19:33;101558.88;;;3.71;100.00
39823;BME280;25499;53.958;10.970;2023-11-18T19:21:59;101545.72;;;3.63;100.00
39823;BME280;25499;53.958;10.970;2023-11-18T19:24:27;101549.84;;;3.82;100.00
39823;BME280;25499;53.958;10.970;2023-11-18T19:26:55;101538.50;;;3.77;100.00
39823;BME280;25499;53.958;10.970;2023-11-18T19:29:22;101525.28;;;3.68;100.00
39823;BME280;25499;53.958;10.970;2023-11-18T19:31:49;101512.28;;;3.65;100.00
39823;BME280;25499;53.958;10.970;2023-11-18T19:34:17;101507.09;;;3.63;100.00
39823;BME280;25499;53.958;10.970;2023-11-18T19:36:46;101497.31;;;3.77;100.00
39823;BME280;25499;53.958;10.970;2023-11-18T19:39:13;101486.22;;;3.80;100.00
39823;BME280;25499;53.958;10.970;2023-11-18T19:41:40;101481.97;;;3.80;100.00
39823;BME280;25499;53.958;10.970;2023-11-18T19:44:06;101478.56;;;3.81;100.00
39823;BME280;25499;53.958;10.970;2023-11-18T19:46:33;101481.97;;;3.80;100.00
39823;BME280;25499;53.958;10.970;2023-11-18T19:49:00;101472.47;;;3.79;100.00
39823;BME280;25499;53.958;10.970;2023-11-18T19:51:28;101476.53;;;3.72;100.00
39823;BME280;25499;53.958;10.970;2023-11-18T19:53:55;101486.16;;;3.78;100.00
39823;BME280;25499;53.958;10.970;2023-11-18T19:56:23;101476.53;;;3.72;100.00
39823;BME280;25499;53.958;10.970;2023-11-18T19:58:50;101484.56;;;3.82;100.00
39823;BME280;25499;53.958;10.970;2023-11-18T20:01:17;101490.50;;;3.79;100.00
39823;BME280;25499;53.958;10.970;2023-11-18T20:03:44;101480.94;;;3.77;100.00
39823;BME280;25499;53.958;10.970;2023-11-18T20:06:10;101469.72;;;3.74;100.00
39823;BME280;25499;53.958;10.970;2023-11-18T20:08:39;101458.94;;;3.85;100.00
39823;BME280;25499;53.958;10.970;2023-11-18T20:11:06;101457.84;;;3.78;100.00
39823;BME280;25499;53.958;10.970;2023-11-18T20:13:34;101464.03;;;3.83;100.00
39823;BME280;25499;53.958;10.970;2023-11-18T20:16:02;101454.00;;;3.91;100.00
39823;BME280;25499;53.958;10.970;2023-11-18T20:18:31;101447.09;;;3.90;100.00
39823;BME280;25499;53.958;10.970;2023-11-18T20:20:57;101424.63;;;3.86;100.00
39823;BME280;25499;53.958;10.970;2023-11-18T20:23:24;101417.03;;;3.89;100.00
39823;BME280;25499;53.958;10.970;2023-11-18T20:25:53;101402.38;;;3.88;100.00
39823;BME280;25499;53.958;10.970;2023-11-18T20:28:20;101381.31;;;3.74;100.00
39823;BME280;25499;53.958;10.970;2023-11-18T20:30:46;101369.41;;;3.78;100.00
39823;BME280;25499;53.958;10.970;2023-11-18T20:33:13;101358.19;;;3.76;100.00
39823;BME280;25499;53.958;10.970;2023-11-18T20:35:40;101353.16;;;3.79;100.00
39823;BME280;25499;53.958;10.970;2023-11-18T20:38:07;101345.94;;;3.68;100.00
39823;BME280;25499;53.958;10.970;2023-11-18T20:40:34;101347.88;;;3.76;100.00
39823;BME280;25499;53.958;10.970;2023-11-18T20:43:03;101364.09;;;3.73;100.00
39823;BME280;25499;53.958;10.970;2023-11-18T20:45:31;101361.47;;;3.71;100.00
39823;BME280;25499;53.958;10.970;2023-11-18T20:47:58;101387.94;;;3.67;100.00
39823;BME280;25499;53.958;10.970;2023-11-18T20:50:26;101373.22;;;3.63;100.00
39823;BME280;25499;53.958;10.970;2023-11-18T20:52:53;101375.31;;;3.75;100.00
39823;BME280;25499;53.958;10.970;2023-11-18T20:55:20;101355.50;;;3.72;100.00
39823;BME280;25499;53.958;10.970;2023-11-18T20:57:47;101361.47;;;3.71;100.00
39823;BME280;25499;53.958;10.970;2023-11-18T21:00:16;101363.59;;;3.83;100.00
39823;BME280;25499;53.958;10.970;2023-11-18T21:02:43;101359.78;;;3.72;100.00
39823;BME280;25499;53.958;10.970;2023-11-18T21:05:09;101349.72;;;3.80;100.00
39823;BME280;25499;53.958;10.970;2023-11-18T21:07:37;101342.06;;;3.81;100.00
39823;BME280;25499;53.958;10.970;2023-11-18T21:10:05;101331.28;;;3.93;100.00
39823;BME280;25499;53.958;10.970;2023-11-18T21:12:31;101320.78;;;3.87;100.00
39823;BME280;25499;53.958;10.970;2023-11-18T21:14:58;101315.69;;;3.88;100.00
39823;BME280;25499;53.958;10.970;2023-11-18T21:17:28;101311.59;;;3.95;100.00
39823;BME280;25499;53.958;10.970;2023-11-18T21:19:56;101311.66;;;3.97;100.00
39823;BME280;25499;53.958;10.970;2023-11-18T21:22:23;101294.09;;;3.85;100.00
39823;BME280;25499;53.958;10.970;2023-11-18T21:24:50;101296.88;;;3.91;100.00
39823;BME280;25499;53.958;10.970;2023-11-18T21:27:18;101296.16;;;3.95;100.00
